sensor_id;sensor_type;location;lat;lon;timestamp;temperature;humidity
75786;DHT22;64402;44.708;37.644;2023-07-16T00:00:33;20.62;85.61
75786;DHT22;64402;44.708;37.644;2023-07-16T00:02:59;20.64;86.08
75786;DHT22;64402;44.708;37.644;2023-07-16T00:05:25;20.68;86.61
75786;DHT22;64402;44.708;37.644;2023-07-16T00:07:51;20.72;85.81
75786;DHT22;64402;44.708;37.644;2023-07-16T00:10:17;20.74;86.54
75786;DHT22;64402;44.708;37.644;2023-07-16T00:12:43;20.73;86.80
75786;DHT22;64402;44.708;37.644;2023-07-16T00:15:09;20.73;87.16
75786;DHT22;64402;44.708;37.644;2023-07-16T00:17:36;20.75;85.66
75786;DHT22;64402;44.708;37.644;2023-07-16T00:20:10;20.72;85.40
75786;DHT22;64402;44.708;37.644;2023-07-16T00:22:37;20.71;85.72
75786;DHT22;64402;44.708;37.644;2023-07-16T00:25:06;20.70;85.73
75786;DHT22;64402;44.708;37.644;2023-07-16T00:27:32;20.69;86.45
75786;DHT22;64402;44.708;37.644;2023-07-16T00:29:58;20.69;86.04
75786;DHT22;64402;44.708;37.644;2023-07-16T00:32:24;20.69;86.35
75786;DHT22;64402;44.708;37.644;2023-07-16T00:34:50;20.66;86.50
75786;DHT22;64402;44.708;37.644;2023-07-16T00:37:16;20.62;85.58
75786;DHT22;64402;44.708;37.644;2023-07-16T00:39:42;20.60;86.12
75786;DHT22;64402;44.708;37.644;2023-07-16T00:42:08;20.58;85.93
75786;DHT22;64402;44.708;37.644;2023-07-16T00:44:35;20.58;86.18
75786;DHT22;64402;44.708;37.644;2023-07-16T00:47:01;20.56;86.19
75786;DHT22;64402;44.708;37.644;2023-07-16T00:49:27;20.54;85.79
75786;DHT22;64402;44.708;37.644;2023-07-16T00:51:55;20.49;85.67
75786;DHT22;64402;44.708;37.644;2023-07-16T00:54:22;20.44;85.30
75786;DHT22;64402;44.708;37.644;2023-07-16T00:56:48;20.40;85.88
75786;DHT22;64402;44.708;37.644;2023-07-16T00:59:14;20.33;85.63
75786;DHT22;64402;44.708;37.644;2023-07-16T01:01:40;20.28;85.88
75786;DHT22;64402;44.708;37.644;2023-07-16T01:04:07;20.26;86.06
75786;DHT22;64402;44.708;37.644;2023-07-16T01:06:37;20.27;86.51
75786;DHT22;64402;44.708;37.644;2023-07-16T01:09:16;20.24;85.67
75786;DHT22;64402;44.708;37.644;2023-07-16T01:11:43;20.29;85.83
75786;DHT22;64402;44.708;37.644;2023-07-16T01:14:10;20.28;85.24
75786;DHT22;64402;44.708;37.644;2023-07-16T01:16:38;20.21;84.96
75786;DHT22;64402;44.708;37.644;2023-07-16T01:19:04;20.18;85.73
75786;DHT22;64402;44.708;37.644;2023-07-16T01:27:04;20.09;85.22
75786;DHT22;64402;44.708;37.644;2023-07-16T01:29:51;20.07;85.68
75786;DHT22;64402;44.708;37.644;2023-07-16T01:32:19;20.06;86.15
75786;DHT22;64402;44.708;37.644;2023-07-16T01:34:46;20.06;86.37
75786;DHT22;64402;44.708;37.644;2023-07-16T01:37:13;20.06;85.60
75786;DHT22;64402;44.708;37.644;2023-07-16T01:39:39;20.10;86.07
75786;DHT22;64402;44.708;37.644;2023-07-16T01:42:05;20.07;85.94
75786;DHT22;64402;44.708;37.644;2023-07-16T01:44:32;20.04;85.61
75786;DHT22;64402;44.708;37.644;2023-07-16T01:47:05;20.03;85.60
75786;DHT22;64402;44.708;37.644;2023-07-16T01:49:32;20.03;85.51
75786;DHT22;64402;44.708;37.644;2023-07-16T01:52:00;20.00;85.71
75786;DHT22;64402;44.708;37.644;2023-07-16T01:54:26;19.99;85.38
75786;DHT22;64402;44.708;37.644;2023-07-16T01:56:53;19.99;85.48
75786;DHT22;64402;44.708;37.644;2023-07-16T01:59:19;19.98;85.40
75786;DHT22;64402;44.708;37.644;2023-07-16T02:01:45;19.96;85.44
75786;DHT22;64402;44.708;37.644;2023-07-16T02:04:11;19.96;85.45
75786;DHT22;64402;44.708;37.644;2023-07-16T02:06:37;19.96;85.28
75786;DHT22;64402;44.708;37.644;2023-07-16T02:09:03;19.96;85.35
75786;DHT22;64402;44.708;37.644;2023-07-16T02:11:29;19.94;85.27
75786;DHT22;64402;44.708;37.644;2023-07-16T02:13:55;19.95;84.99
75786;DHT22;64402;44.708;37.644;2023-07-16T02:16:21;19.97;84.79
75786;DHT22;64402;44.708;37.644;2023-07-16T02:18:48;19.96;84.72
75786;DHT22;64402;44.708;37.644;2023-07-16T02:21:14;20.00;84.50
75786;DHT22;64402;44.708;37.644;2023-07-16T02:23:40;20.01;84.35
75786;DHT22;64402;44.708;37.644;2023-07-16T02:26:06;20.03;84.06
75786;DHT22;64402;44.708;37.644;2023-07-16T02:28:32;20.01;84.07
75786;DHT22;64402;44.708;37.644;2023-07-16T02:30:58;20.01;83.98
75786;DHT22;64402;44.708;37.644;2023-07-16T02:33:24;20.02;84.08
75786;DHT22;64402;44.708;37.644;2023-07-16T02:35:50;20.04;84.25
75786;DHT22;64402;44.708;37.644;2023-07-16T02:38:19;20.04;83.80
75786;DHT22;64402;44.708;37.644;2023-07-16T02:40:46;20.03;83.90
75786;DHT22;64402;44.708;37.644;2023-07-16T02:43:13;20.03;83.66
75786;DHT22;64402;44.708;37.644;2023-07-16T02:45:40;20.06;83.18
75786;DHT22;64402;44.708;37.644;2023-07-16T02:48:06;20.07;83.07
75786;DHT22;64402;44.708;37.644;2023-07-16T02:50:36;20.10;83.28
75786;DHT22;64402;44.708;37.644;2023-07-16T02:53:07;20.14;83.22
75786;DHT22;64402;44.708;37.644;2023-07-16T02:55:34;20.14;83.07
75786;DHT22;64402;44.708;37.644;2023-07-16T02:58:01;20.13;83.13
75786;DHT22;64402;44.708;37.644;2023-07-16T03:00:31;20.19;83.10
75786;DHT22;64402;44.708;37.644;2023-07-16T03:02:57;20.24;83.57
75786;DHT22;64402;44.708;37.644;2023-07-16T03:05:28;20.32;83.20
75786;DHT22;64402;44.708;37.644;2023-07-16T03:07:54;20.40;82.61
75786;DHT22;64402;44.708;37.644;2023-07-16T03:10:21;20.45;82.99
75786;DHT22;64402;44.708;37.644;2023-07-16T03:12:47;20.49;82.85
75786;DHT22;64402;44.708;37.644;2023-07-16T03:15:13;20.56;82.38
75786;DHT22;64402;44.708;37.644;2023-07-16T03:17:39;20.60;82.42
75786;DHT22;64402;44.708;37.644;2023-07-16T03:20:07;20.69;82.13
75786;DHT22;64402;44.708;37.644;2023-07-16T03:22:33;20.75;81.88
75786;DHT22;64402;44.708;37.644;2023-07-16T03:24:59;20.76;81.65
75786;DHT22;64402;44.708;37.644;2023-07-16T03:27:25;20.81;81.81
75786;DHT22;64402;44.708;37.644;2023-07-16T03:29:51;20.85;81.88
75786;DHT22;64402;44.708;37.644;2023-07-16T03:32:17;20.93;81.43
75786;DHT22;64402;44.708;37.644;2023-07-16T03:34:44;20.99;81.60
75786;DHT22;64402;44.708;37.644;2023-07-16T03:37:10;21.04;81.58
75786;DHT22;64402;44.708;37.644;2023-07-16T03:39:36;21.14;81.49
75786;DHT22;64402;44.708;37.644;2023-07-16T03:42:02;21.20;81.74
75786;DHT22;64402;44.708;37.644;2023-07-16T03:44:29;21.27;81.29
75786;DHT22;64402;44.708;37.644;2023-07-16T03:46:55;21.38;81.40
75786;DHT22;64402;44.708;37.644;2023-07-16T03:49:21;21.44;81.43
75786;DHT22;64402;44.708;37.644;2023-07-16T03:51:47;21.53;80.41
75786;DHT22;64402;44.708;37.644;2023-07-16T03:54:13;21.60;81.22
75786;DHT22;64402;44.708;37.644;2023-07-16T03:56:39;21.69;80.14
75786;DHT22;64402;44.708;37.644;2023-07-16T03:59:05;21.80;80.45
75786;DHT22;64402;44.708;37.644;2023-07-16T04:01:32;21.87;80.43
75786;DHT22;64402;44.708;37.644;2023-07-16T04:03:58;21.93;80.33
75786;DHT22;64402;44.708;37.644;2023-07-16T04:06:24;21.99;80.04
75786;DHT22;64402;44.708;37.644;2023-07-16T04:08:50;22.09;79.17
75786;DHT22;64402;44.708;37.644;2023-07-16T04:11:16;22.19;79.17
75786;DHT22;64402;44.708;37.644;2023-07-16T04:13:42;22.25;78.88
75786;DHT22;64402;44.708;37.644;2023-07-16T04:16:08;22.37;78.98
75786;DHT22;64402;44.708;37.644;2023-07-16T04:18:35;22.44;78.89
75786;DHT22;64402;44.708;37.644;2023-07-16T04:21:01;22.54;78.42
75786;DHT22;64402;44.708;37.644;2023-07-16T04:23:27;22.64;77.86
75786;DHT22;64402;44.708;37.644;2023-07-16T04:25:55;22.73;77.32
75786;DHT22;64402;44.708;37.644;2023-07-16T04:28:21;22.84;75.91
75786;DHT22;64402;44.708;37.644;2023-07-16T04:30:47;22.94;75.73
75786;DHT22;64402;44.708;37.644;2023-07-16T04:33:13;23.05;75.59
75786;DHT22;64402;44.708;37.644;2023-07-16T04:35:39;23.13;74.81
75786;DHT22;64402;44.708;37.644;2023-07-16T04:38:05;23.22;74.38
75786;DHT22;64402;44.708;37.644;2023-07-16T04:40:33;23.30;74.64
75786;DHT22;64402;44.708;37.644;2023-07-16T04:42:59;23.40;73.87
75786;DHT22;64402;44.708;37.644;2023-07-16T04:45:25;23.47;73.44
75786;DHT22;64402;44.708;37.644;2023-07-16T04:47:51;23.55;73.78
75786;DHT22;64402;44.708;37.644;2023-07-16T04:50:18;23.61;72.77
75786;DHT22;64402;44.708;37.644;2023-07-16T04:52:44;23.71;71.24
75786;DHT22;64402;44.708;37.644;2023-07-16T04:55:10;23.79;71.57
75786;DHT22;64402;44.708;37.644;2023-07-16T04:57:38;23.89;69.05
75786;DHT22;64402;44.708;37.644;2023-07-16T05:00:04;23.98;69.52
75786;DHT22;64402;44.708;37.644;2023-07-16T05:02:32;24.05;69.82
75786;DHT22;64402;44.708;37.644;2023-07-16T05:04:58;24.18;69.79
75786;DHT22;64402;44.708;37.644;2023-07-16T05:07:24;24.28;69.34
75786;DHT22;64402;44.708;37.644;2023-07-16T05:09:50;24.39;69.33
75786;DHT22;64402;44.708;37.644;2023-07-16T05:12:16;24.49;68.01
75786;DHT22;64402;44.708;37.644;2023-07-16T05:14:44;24.62;67.15
75786;DHT22;64402;44.708;37.644;2023-07-16T05:17:12;24.70;65.55
75786;DHT22;64402;44.708;37.644;2023-07-16T05:19:38;24.78;65.66
75786;DHT22;64402;44.708;37.644;2023-07-16T05:22:04;24.91;65.06
75786;DHT22;64402;44.708;37.644;2023-07-16T05:24:31;25.03;63.44
75786;DHT22;64402;44.708;37.644;2023-07-16T05:26:58;25.15;62.95
75786;DHT22;64402;44.708;37.644;2023-07-16T05:29:24;25.25;63.15
75786;DHT22;64402;44.708;37.644;2023-07-16T05:31:50;25.38;62.98
75786;DHT22;64402;44.708;37.644;2023-07-16T05:34:16;25.44;60.29
75786;DHT22;64402;44.708;37.644;2023-07-16T05:36:43;25.49;58.16
75786;DHT22;64402;44.708;37.644;2023-07-16T05:39:12;25.51;59.25
75786;DHT22;64402;44.708;37.644;2023-07-16T05:41:41;25.63;58.94
75786;DHT22;64402;44.708;37.644;2023-07-16T05:44:07;25.75;58.87
75786;DHT22;64402;44.708;37.644;2023-07-16T05:46:34;25.83;59.37
75786;DHT22;64402;44.708;37.644;2023-07-16T05:49:00;25.91;58.54
75786;DHT22;64402;44.708;37.644;2023-07-16T05:51:27;26.04;54.77
75786;DHT22;64402;44.708;37.644;2023-07-16T05:53:53;26.09;52.86
75786;DHT22;64402;44.708;37.644;2023-07-16T05:56:20;26.16;49.68
75786;DHT22;64402;44.708;37.644;2023-07-16T05:58:46;26.23;51.69
75786;DHT22;64402;44.708;37.644;2023-07-16T06:01:12;26.28;49.76
75786;DHT22;64402;44.708;37.644;2023-07-16T06:03:38;26.30;48.81
75786;DHT22;64402;44.708;37.644;2023-07-16T06:06:04;26.34;48.57
75786;DHT22;64402;44.708;37.644;2023-07-16T06:08:30;26.40;48.75
75786;DHT22;64402;44.708;37.644;2023-07-16T06:10:57;26.49;48.47
75786;DHT22;64402;44.708;37.644;2023-07-16T06:13:23;26.61;48.95
75786;DHT22;64402;44.708;37.644;2023-07-16T06:15:49;26.58;47.04
75786;DHT22;64402;44.708;37.644;2023-07-16T06:18:15;26.68;48.29
75786;DHT22;64402;44.708;37.644;2023-07-16T06:20:46;26.80;47.50
75786;DHT22;64402;44.708;37.644;2023-07-16T06:23:12;26.95;48.38
75786;DHT22;64402;44.708;37.644;2023-07-16T06:25:38;26.97;45.02
75786;DHT22;64402;44.708;37.644;2023-07-16T06:28:10;27.08;42.71
75786;DHT22;64402;44.708;37.644;2023-07-16T06:30:37;27.20;44.44
75786;DHT22;64402;44.708;37.644;2023-07-16T06:33:03;27.31;45.54
75786;DHT22;64402;44.708;37.644;2023-07-16T06:35:30;27.45;44.16
75786;DHT22;64402;44.708;37.644;2023-07-16T06:37:56;27.52;42.74
75786;DHT22;64402;44.708;37.644;2023-07-16T06:40:23;27.56;42.46
75786;DHT22;64402;44.708;37.644;2023-07-16T06:42:49;27.59;41.41
75786;DHT22;64402;44.708;37.644;2023-07-16T06:45:17;27.47;42.61
75786;DHT22;64402;44.708;37.644;2023-07-16T06:47:43;27.49;42.93
75786;DHT22;64402;44.708;37.644;2023-07-16T06:50:09;27.78;41.21
75786;DHT22;64402;44.708;37.644;2023-07-16T06:52:35;28.04;42.68
75786;DHT22;64402;44.708;37.644;2023-07-16T06:55:02;28.43;43.26
75786;DHT22;64402;44.708;37.644;2023-07-16T06:57:28;28.40;40.93
75786;DHT22;64402;44.708;37.644;2023-07-16T06:59:54;28.42;42.00
75786;DHT22;64402;44.708;37.644;2023-07-16T07:02:20;28.48;42.56
75786;DHT22;64402;44.708;37.644;2023-07-16T07:04:46;28.44;41.73
75786;DHT22;64402;44.708;37.644;2023-07-16T07:07:12;28.42;41.12
75786;DHT22;64402;44.708;37.644;2023-07-16T07:09:39;28.60;40.80
75786;DHT22;64402;44.708;37.644;2023-07-16T07:12:05;28.69;40.22
75786;DHT22;64402;44.708;37.644;2023-07-16T07:14:33;28.60;40.92
75786;DHT22;64402;44.708;37.644;2023-07-16T07:16:59;28.93;42.52
75786;DHT22;64402;44.708;37.644;2023-07-16T07:19:26;29.21;41.58
75786;DHT22;64402;44.708;37.644;2023-07-16T07:21:52;29.46;39.66
75786;DHT22;64402;44.708;37.644;2023-07-16T07:24:18;29.19;38.06
75786;DHT22;64402;44.708;37.644;2023-07-16T07:26:44;28.87;38.79
75786;DHT22;64402;44.708;37.644;2023-07-16T07:29:10;28.38;38.27
75786;DHT22;64402;44.708;37.644;2023-07-16T07:31:36;27.97;39.73
75786;DHT22;64402;44.708;37.644;2023-07-16T07:34:03;27.85;41.26
75786;DHT22;64402;44.708;37.644;2023-07-16T07:36:29;27.67;42.26
75786;DHT22;64402;44.708;37.644;2023-07-16T07:38:55;27.66;43.64
75786;DHT22;64402;44.708;37.644;2023-07-16T07:41:21;27.65;44.22
75786;DHT22;64402;44.708;37.644;2023-07-16T07:43:47;28.03;43.48
75786;DHT22;64402;44.708;37.644;2023-07-16T07:46:13;28.78;41.97
75786;DHT22;64402;44.708;37.644;2023-07-16T07:48:39;29.47;40.29
75786;DHT22;64402;44.708;37.644;2023-07-16T07:51:06;29.80;39.58
75786;DHT22;64402;44.708;37.644;2023-07-16T07:53:32;29.83;39.34
75786;DHT22;64402;44.708;37.644;2023-07-16T07:55:58;29.72;39.92
75786;DHT22;64402;44.708;37.644;2023-07-16T07:58:24;29.66;40.01
75786;DHT22;64402;44.708;37.644;2023-07-16T08:00:50;29.37;40.26
75786;DHT22;64402;44.708;37.644;2023-07-16T08:03:16;29.19;41.20
75786;DHT22;64402;44.708;37.644;2023-07-16T08:05:42;28.83;42.19
75786;DHT22;64402;44.708;37.644;2023-07-16T08:08:08;28.68;43.20
75786;DHT22;64402;44.708;37.644;2023-07-16T08:10:34;28.55;42.70
75786;DHT22;64402;44.708;37.644;2023-07-16T08:13:00;28.46;43.39
75786;DHT22;64402;44.708;37.644;2023-07-16T08:15:27;28.50;43.95
75786;DHT22;64402;44.708;37.644;2023-07-16T08:17:53;28.68;43.55
75786;DHT22;64402;44.708;37.644;2023-07-16T08:20:20;28.75;43.71
75786;DHT22;64402;44.708;37.644;2023-07-16T08:22:46;28.89;43.68
75786;DHT22;64402;44.708;37.644;2023-07-16T08:25:12;29.01;43.80
75786;DHT22;64402;44.708;37.644;2023-07-16T08:27:38;29.26;43.13
75786;DHT22;64402;44.708;37.644;2023-07-16T08:30:05;29.88;41.52
75786;DHT22;64402;44.708;37.644;2023-07-16T08:32:31;30.64;40.42
75786;DHT22;64402;44.708;37.644;2023-07-16T08:35:17;30.86;39.76
75786;DHT22;64402;44.708;37.644;2023-07-16T08:37:45;30.40;38.20
75786;DHT22;64402;44.708;37.644;2023-07-16T08:40:12;29.90;40.93
75786;DHT22;64402;44.708;37.644;2023-07-16T08:42:39;29.62;40.46
75786;DHT22;64402;44.708;37.644;2023-07-16T08:45:06;29.79;41.28
75786;DHT22;64402;44.708;37.644;2023-07-16T08:47:34;29.85;41.41
75786;DHT22;64402;44.708;37.644;2023-07-16T08:50:01;29.89;40.66
75786;DHT22;64402;44.708;37.644;2023-07-16T08:52:28;29.92;41.63
75786;DHT22;64402;44.708;37.644;2023-07-16T08:54:55;30.57;41.29
75786;DHT22;64402;44.708;37.644;2023-07-16T08:57:21;30.97;39.88
75786;DHT22;64402;44.708;37.644;2023-07-16T08:59:48;30.95;37.63
75786;DHT22;64402;44.708;37.644;2023-07-16T09:02:17;30.83;36.21
75786;DHT22;64402;44.708;37.644;2023-07-16T09:04:46;30.85;37.50
75786;DHT22;64402;44.708;37.644;2023-07-16T09:07:13;30.61;38.88
75786;DHT22;64402;44.708;37.644;2023-07-16T09:09:40;30.57;37.39
75786;DHT22;64402;44.708;37.644;2023-07-16T09:12:06;30.71;36.52
75786;DHT22;64402;44.708;37.644;2023-07-16T09:14:32;31.45;37.21
75786;DHT22;64402;44.708;37.644;2023-07-16T09:16:58;32.75;34.50
75786;DHT22;64402;44.708;37.644;2023-07-16T09:19:25;34.85;29.72
75786;DHT22;64402;44.708;37.644;2023-07-16T09:21:52;36.60;26.36
75786;DHT22;64402;44.708;37.644;2023-07-16T09:24:19;36.06;26.35
75786;DHT22;64402;44.708;37.644;2023-07-16T09:26:53;35.54;27.44
75786;DHT22;64402;44.708;37.644;2023-07-16T09:29:21;34.33;28.99
75786;DHT22;64402;44.708;37.644;2023-07-16T09:32:00;33.27;28.65
75786;DHT22;64402;44.708;37.644;2023-07-16T09:34:28;32.84;31.07
75786;DHT22;64402;44.708;37.644;2023-07-16T09:36:55;32.86;30.39
75786;DHT22;64402;44.708;37.644;2023-07-16T09:39:22;34.95;27.73
75786;DHT22;64402;44.708;37.644;2023-07-16T09:41:49;36.97;23.36
75786;DHT22;64402;44.708;37.644;2023-07-16T09:44:17;37.99;21.46
75786;DHT22;64402;44.708;37.644;2023-07-16T09:46:44;39.26;18.57
75786;DHT22;64402;44.708;37.644;2023-07-16T09:49:10;39.70;18.34
75786;DHT22;64402;44.708;37.644;2023-07-16T09:51:38;40.42;18.67
75786;DHT22;64402;44.708;37.644;2023-07-16T09:54:05;40.90;17.63
75786;DHT22;64402;44.708;37.644;2023-07-16T09:56:39;41.73;16.38
75786;DHT22;64402;44.708;37.644;2023-07-16T09:59:09;42.11;15.80
75786;DHT22;64402;44.708;37.644;2023-07-16T10:01:37;39.25;19.25
75786;DHT22;64402;44.708;37.644;2023-07-16T10:04:14;39.21;18.62
75786;DHT22;64402;44.708;37.644;2023-07-16T10:06:54;39.48;16.22
75786;DHT22;64402;44.708;37.644;2023-07-16T10:12:17;40.26;16.27
75786;DHT22;64402;44.708;37.644;2023-07-16T10:17:16;43.12;13.91
75786;DHT22;64402;44.708;37.644;2023-07-16T10:19:47;43.84;13.45
75786;DHT22;64402;44.708;37.644;2023-07-16T10:22:13;43.48;13.28
75786;DHT22;64402;44.708;37.644;2023-07-16T10:24:39;43.81;13.33
75786;DHT22;64402;44.708;37.644;2023-07-16T10:27:05;44.39;13.03
75786;DHT22;64402;44.708;37.644;2023-07-16T10:29:31;43.94;13.07
75786;DHT22;64402;44.708;37.644;2023-07-16T10:32:02;43.39;12.62
75786;DHT22;64402;44.708;37.644;2023-07-16T10:34:28;43.64;13.33
75786;DHT22;64402;44.708;37.644;2023-07-16T10:36:54;44.18;12.15
75786;DHT22;64402;44.708;37.644;2023-07-16T10:39:20;44.86;12.21
75786;DHT22;64402;44.708;37.644;2023-07-16T10:41:46;45.02;11.69
75786;DHT22;64402;44.708;37.644;2023-07-16T10:44:14;42.40;14.77
75786;DHT22;64402;44.708;37.644;2023-07-16T10:46:44;41.54;15.71
75786;DHT22;64402;44.708;37.644;2023-07-16T10:49:10;40.31;16.67
75786;DHT22;64402;44.708;37.644;2023-07-16T10:51:36;40.67;15.92
75786;DHT22;64402;44.708;37.644;2023-07-16T10:54:02;39.64;16.88
75786;DHT22;64402;44.708;37.644;2023-07-16T10:56:35;39.21;17.59
75786;DHT22;64402;44.708;37.644;2023-07-16T10:59:02;40.19;16.99
75786;DHT22;64402;44.708;37.644;2023-07-16T11:01:33;41.62;15.30
75786;DHT22;64402;44.708;37.644;2023-07-16T11:04:07;41.80;13.20
75786;DHT22;64402;44.708;37.644;2023-07-16T11:06:33;42.67;12.93
75786;DHT22;64402;44.708;37.644;2023-07-16T11:09:10;43.11;11.14
75786;DHT22;64402;44.708;37.644;2023-07-16T11:11:36;42.53;12.48
75786;DHT22;64402;44.708;37.644;2023-07-16T11:14:06;43.12;10.78
75786;DHT22;64402;44.708;37.644;2023-07-16T11:16:36;43.38;11.39
75786;DHT22;64402;44.708;37.644;2023-07-16T11:19:07;44.31;10.97
75786;DHT22;64402;44.708;37.644;2023-07-16T11:21:33;45.29;10.20
75786;DHT22;64402;44.708;37.644;2023-07-16T11:24:15;44.24;11.26
75786;DHT22;64402;44.708;37.644;2023-07-16T11:26:51;45.47;10.69
75786;DHT22;64402;44.708;37.644;2023-07-16T11:29:17;45.59;10.56
75786;DHT22;64402;44.708;37.644;2023-07-16T11:31:43;45.87;10.20
75786;DHT22;64402;44.708;37.644;2023-07-16T11:34:13;45.42;9.08
75786;DHT22;64402;44.708;37.644;2023-07-16T11:36:39;44.76;10.05
75786;DHT22;64402;44.708;37.644;2023-07-16T11:39:05;44.62;9.91
75786;DHT22;64402;44.708;37.644;2023-07-16T11:41:31;44.52;9.76
75786;DHT22;64402;44.708;37.644;2023-07-16T11:44:01;44.74;9.83
75786;DHT22;64402;44.708;37.644;2023-07-16T11:46:33;44.38;9.86
75786;DHT22;64402;44.708;37.644;2023-07-16T11:49:01;44.59;9.98
75786;DHT22;64402;44.708;37.644;2023-07-16T11:51:27;44.44;9.79
75786;DHT22;64402;44.708;37.644;2023-07-16T11:53:56;44.16;9.61
75786;DHT22;64402;44.708;37.644;2023-07-16T11:56:23;44.43;10.13
75786;DHT22;64402;44.708;37.644;2023-07-16T11:58:49;45.56;8.92
75786;DHT22;64402;44.708;37.644;2023-07-16T12:01:15;46.34;8.72
75786;DHT22;64402;44.708;37.644;2023-07-16T12:03:42;46.94;8.25
75786;DHT22;64402;44.708;37.644;2023-07-16T12:06:08;45.93;8.08
75786;DHT22;64402;44.708;37.644;2023-07-16T12:08:34;45.44;8.81
75786;DHT22;64402;44.708;37.644;2023-07-16T12:11:00;45.49;9.83
75786;DHT22;64402;44.708;37.644;2023-07-16T12:13:26;45.53;10.00
75786;DHT22;64402;44.708;37.644;2023-07-16T12:15:52;43.91;11.84
75786;DHT22;64402;44.708;37.644;2023-07-16T12:18:18;44.90;10.85
75786;DHT22;64402;44.708;37.644;2023-07-16T12:20:44;45.48;10.14
75786;DHT22;64402;44.708;37.644;2023-07-16T12:23:10;46.01;9.24
75786;DHT22;64402;44.708;37.644;2023-07-16T12:25:36;46.25;9.08
75786;DHT22;64402;44.708;37.644;2023-07-16T12:28:02;45.69;9.05
75786;DHT22;64402;44.708;37.644;2023-07-16T12:30:29;45.58;9.12
75786;DHT22;64402;44.708;37.644;2023-07-16T12:32:55;44.16;10.39
75786;DHT22;64402;44.708;37.644;2023-07-16T12:35:21;44.21;10.49
75786;DHT22;64402;44.708;37.644;2023-07-16T12:37:48;44.83;9.81
75786;DHT22;64402;44.708;37.644;2023-07-16T12:40:14;45.46;9.88
75786;DHT22;64402;44.708;37.644;2023-07-16T12:42:40;45.63;9.35
75786;DHT22;64402;44.708;37.644;2023-07-16T12:45:06;45.72;9.18
75786;DHT22;64402;44.708;37.644;2023-07-16T12:47:33;46.42;8.76
75786;DHT22;64402;44.708;37.644;2023-07-16T12:49:59;46.52;8.82
75786;DHT22;64402;44.708;37.644;2023-07-16T12:52:25;46.52;8.67
75786;DHT22;64402;44.708;37.644;2023-07-16T12:54:51;46.60;9.05
75786;DHT22;64402;44.708;37.644;2023-07-16T12:57:18;46.13;8.56
75786;DHT22;64402;44.708;37.644;2023-07-16T12:59:44;45.80;9.34
75786;DHT22;64402;44.708;37.644;2023-07-16T13:02:10;45.83;9.38
75786;DHT22;64402;44.708;37.644;2023-07-16T13:04:36;45.78;9.69
75786;DHT22;64402;44.708;37.644;2023-07-16T13:07:02;45.71;9.74
75786;DHT22;64402;44.708;37.644;2023-07-16T13:09:28;46.00;9.69
75786;DHT22;64402;44.708;37.644;2023-07-16T13:11:54;46.35;9.54
75786;DHT22;64402;44.708;37.644;2023-07-16T13:14:20;46.00;9.05
75786;DHT22;64402;44.708;37.644;2023-07-16T13:16:47;45.51;9.36
75786;DHT22;64402;44.708;37.644;2023-07-16T13:19:13;44.71;10.02
75786;DHT22;64402;44.708;37.644;2023-07-16T13:21:39;45.20;9.54
75786;DHT22;64402;44.708;37.644;2023-07-16T13:24:05;45.64;9.63
75786;DHT22;64402;44.708;37.644;2023-07-16T13:26:31;45.45;9.36
75786;DHT22;64402;44.708;37.644;2023-07-16T13:28:57;45.72;9.65
75786;DHT22;64402;44.708;37.644;2023-07-16T13:31:23;45.93;9.16
75786;DHT22;64402;44.708;37.644;2023-07-16T13:33:49;45.72;9.46
75786;DHT22;64402;44.708;37.644;2023-07-16T13:36:15;45.40;9.77
75786;DHT22;64402;44.708;37.644;2023-07-16T13:38:42;44.84;9.83
75786;DHT22;64402;44.708;37.644;2023-07-16T13:41:08;44.23;10.13
75786;DHT22;64402;44.708;37.644;2023-07-16T13:43:34;44.43;10.69
75786;DHT22;64402;44.708;37.644;2023-07-16T13:46:00;44.15;10.82
75786;DHT22;64402;44.708;37.644;2023-07-16T13:48:26;44.17;11.00
75786;DHT22;64402;44.708;37.644;2023-07-16T13:50:52;44.45;9.95
75786;DHT22;64402;44.708;37.644;2023-07-16T13:53:18;43.94;10.27
75786;DHT22;64402;44.708;37.644;2023-07-16T13:55:44;43.73;9.73
75786;DHT22;64402;44.708;37.644;2023-07-16T13:58:11;42.99;10.53
75786;DHT22;64402;44.708;37.644;2023-07-16T14:00:37;43.36;10.13
75786;DHT22;64402;44.708;37.644;2023-07-16T14:03:03;43.81;10.17
75786;DHT22;64402;44.708;37.644;2023-07-16T14:05:29;43.98;10.04
75786;DHT22;64402;44.708;37.644;2023-07-16T14:07:55;43.66;9.59
75786;DHT22;64402;44.708;37.644;2023-07-16T14:10:21;42.65;10.65
75786;DHT22;64402;44.708;37.644;2023-07-16T14:12:47;42.18;11.19
75786;DHT22;64402;44.708;37.644;2023-07-16T14:15:13;42.84;10.71
75786;DHT22;64402;44.708;37.644;2023-07-16T14:17:39;43.08;10.59
75786;DHT22;64402;44.708;37.644;2023-07-16T14:20:09;42.95;10.43
75786;DHT22;64402;44.708;37.644;2023-07-16T14:22:35;43.43;9.94
75786;DHT22;64402;44.708;37.644;2023-07-16T14:25:02;43.61;9.89
75786;DHT22;64402;44.708;37.644;2023-07-16T14:27:28;43.11;10.08
75786;DHT22;64402;44.708;37.644;2023-07-16T14:29:54;43.29;10.17
75786;DHT22;64402;44.708;37.644;2023-07-16T14:32:20;43.13;10.11
75786;DHT22;64402;44.708;37.644;2023-07-16T14:34:46;42.98;10.10
75786;DHT22;64402;44.708;37.644;2023-07-16T14:37:12;43.13;10.23
75786;DHT22;64402;44.708;37.644;2023-07-16T14:39:38;42.94;10.77
75786;DHT22;64402;44.708;37.644;2023-07-16T14:42:04;43.10;10.49
75786;DHT22;64402;44.708;37.644;2023-07-16T14:44:30;42.65;10.61
75786;DHT22;64402;44.708;37.644;2023-07-16T14:46:56;42.30;11.08
75786;DHT22;64402;44.708;37.644;2023-07-16T14:49:23;42.66;11.34
75786;DHT22;64402;44.708;37.644;2023-07-16T14:51:49;42.84;11.27
75786;DHT22;64402;44.708;37.644;2023-07-16T14:54:15;42.70;11.33
75786;DHT22;64402;44.708;37.644;2023-07-16T14:56:41;41.99;11.36
75786;DHT22;64402;44.708;37.644;2023-07-16T14:59:07;41.36;12.48
75786;DHT22;64402;44.708;37.644;2023-07-16T15:01:34;40.46;13.36
75786;DHT22;64402;44.708;37.644;2023-07-16T15:04:00;40.47;13.65
75786;DHT22;64402;44.708;37.644;2023-07-16T15:06:27;40.55;13.91
75786;DHT22;64402;44.708;37.644;2023-07-16T15:08:53;40.48;14.07
75786;DHT22;64402;44.708;37.644;2023-07-16T15:11:19;40.97;13.55
75786;DHT22;64402;44.708;37.644;2023-07-16T15:13:45;41.26;13.27
75786;DHT22;64402;44.708;37.644;2023-07-16T15:16:11;41.07;13.17
75786;DHT22;64402;44.708;37.644;2023-07-16T15:18:38;40.84;13.59
75786;DHT22;64402;44.708;37.644;2023-07-16T15:21:04;40.74;14.24
75786;DHT22;64402;44.708;37.644;2023-07-16T15:23:31;40.80;14.59
75786;DHT22;64402;44.708;37.644;2023-07-16T15:26:03;40.32;14.53